Time;durP1;ratioP1;P1;durP2;ratioP2;P2;SDS_P1;SDS_P2;PMS_P1;PMS_P2;Temp;Humidity;BMP_temperature;BMP_pressure;BME280_temperature;BME280_humidity;BME280_pressure;Samples;Min_cycle;Max_cycle;Signal;HPM_P1;HPM_P2
2022/10/26 00:02:05;;;;;;;25.90;7.70;;;;;;;16.99;72.27;99649.59;5069795;28;20211;-62
2022/10/26 00:04:31;;;;;;;18.53;7.80;;;;;;;17.11;72.07;99653.34;5069590;28;20208;-59
2022/10/26 00:06:58;;;;;;;18.47;7.93;;;;;;;17.10;71.99;99634.13;5069608;28;20220;-59
2022/10/26 00:09:25;;;;;;;20.17;7.63;;;;;;;17.23;71.95;99652.69;5070016;28;20226;-59
2022/10/26 00:11:52;;;;;;;22.27;7.67;;;;;;;17.27;72.20;99655.03;5069991;28;20219;-59
2022/10/26 00:14:19;;;;;;;22.43;7.20;;;;;;;17.29;71.91;99647.94;5069811;28;20285;-59
2022/10/26 00:16:46;;;;;;;20.50;7.53;;;;;;;17.36;71.65;99657.19;5069664;28;20202;-62
2022/10/26 00:19:15;;;;;;;27.37;8.03;;;;;;;17.39;71.29;99658.78;5069394;28;20198;-63
2022/10/26 00:21:42;;;;;;;27.70;7.40;;;;;;;17.38;71.08;99655.31;5069609;28;20207;-63
2022/10/26 00:24:08;;;;;;;22.33;7.77;;;;;;;17.38;71.00;99657.09;5069603;28;20215;-63
2022/10/26 00:26:35;;;;;;;18.87;6.73;;;;;;;17.37;70.60;99656.25;5069775;28;20200;-63
2022/10/26 00:29:02;;;;;;;19.27;7.00;;;;;;;17.37;70.49;99655.41;5069702;28;20669;-61
2022/10/26 00:31:29;;;;;;;21.67;7.07;;;;;;;17.35;70.08;99647.63;5069455;28;20196;-59
2022/10/26 00:33:57;;;;;;;29.00;7.03;;;;;;;17.36;70.21;99645.84;5069350;28;20200;-59
2022/10/26 00:36:26;;;;;;;18.97;6.70;;;;;;;17.36;69.37;99654.56;5069485;28;20283;-62
2022/10/26 00:38:55;;;;;;;22.53;7.20;;;;;;;17.34;68.92;99652.94;5069383;28;20229;-61
2022/10/26 00:41:24;;;;;;;18.63;6.93;;;;;;;17.33;68.76;99646.84;5069640;28;20196;-61
2022/10/26 00:43:52;;;;;;;19.93;6.73;;;;;;;17.24;68.91;99655.22;5069395;28;20667;-61
2022/10/26 00:46:22;;;;;;;21.50;6.87;;;;;;;17.25;68.81;99662.16;5069352;28;20218;-61
2022/10/26 00:48:53;;;;;;;17.50;6.60;;;;;;;17.18;68.67;99663.41;5069510;28;20242;-62
2022/10/26 00:51:29;;;;;;;25.17;7.13;;;;;;;17.02;68.40;99634.56;5069387;28;20195;-62
2022/10/26 00:53:56;;;;;;;16.40;6.17;;;;;;;17.16;68.24;99660.00;5069486;28;20192;-63
2022/10/26 00:56:24;;;;;;;21.30;6.30;;;;;;;17.12;68.06;99655.03;5069272;28;20200;-59
2022/10/26 00:58:51;;;;;;;13.23;6.03;;;;;;;17.11;68.35;99654.19;5069339;28;20200;-59
2022/10/26 01:01:18;;;;;;;15.37;6.20;;;;;;;17.01;68.62;99652.97;5069215;28;20207;-61
2022/10/26 01:03:46;;;;;;;20.70;6.30;;;;;;;16.97;68.76;99647.03;5069251;28;20204;-61
2022/10/26 01:06:14;;;;;;;18.27;6.13;;;;;;;16.95;68.81;99648.03;5069529;28;20627;-60
2022/10/26 01:08:44;;;;;;;23.63;6.10;;;;;;;16.93;69.30;99645.50;5069103;28;20216;-62
2022/10/26 01:11:12;;;;;;;14.30;6.07;;;;;;;16.91;69.55;99651.78;5069303;28;20631;-62
2022/10/26 01:13:41;;;;;;;15.20;5.73;;;;;;;16.88;70.14;99651.94;5068928;28;20214;-62
2022/10/26 01:16:29;;;;;;;18.10;5.70;;;;;;;16.87;70.89;99655.47;5069200;28;20202;-60
2022/10/26 01:19:08;;;;;;;18.23;6.13;;;;;;;16.83;71.27;99654.78;5067420;28;20196;-59
2022/10/26 01:21:48;;;;;;;17.90;5.90;;;;;;;16.85;71.63;99652.06;5069550;28;20203;-60
2022/10/26 01:24:34;;;;;;;21.23;6.50;;;;;;;16.84;72.04;99650.38;5069084;28;20210;-60
2022/10/26 01:27:20;;;;;;;19.53;6.40;;;;;;;16.94;72.51;99652.44;5068978;28;20191;-60
2022/10/26 01:30:25;;;;;;;26.50;6.50;;;;;;;16.96;72.88;99650.59;5070101;28;20207;-62
2022/10/26 01:33:10;;;;;;;15.70;6.57;;;;;;;17.01;72.67;99653.81;5072605;28;20203;-62
2022/10/26 01:35:43;;;;;;;14.03;5.50;;;;;;;17.07;73.07;99652.66;5072469;28;20203;-60
2022/10/26 01:38:17;;;;;;;19.33;6.90;;;;;;;17.12;73.12;99655.03;5072458;28;20277;-62
2022/10/26 01:40:54;;;;;;;16.40;6.63;;;;;;;17.15;73.41;99660.97;5072406;28;20209;-60
2022/10/26 01:43:22;;;;;;;15.63;6.40;;;;;;;17.24;72.61;99660.47;5072331;28;20198;-60
2022/10/26 01:45:53;;;;;;;16.33;5.77;;;;;;;17.27;72.14;99664.69;5072511;28;20728;-61
2022/10/26 01:48:23;;;;;;;20.17;6.10;;;;;;;17.26;72.33;99661.25;5072289;28;20223;-62
2022/10/26 01:50:54;;;;;;;17.57;6.47;;;;;;;17.29;71.66;99653.19;5072277;28;20195;-62
2022/10/26 01:53:21;;;;;;;16.23;6.10;;;;;;;17.28;71.50;99648.00;5072171;28;20192;-60
2022/10/26 01:55:50;;;;;;;13.67;5.63;;;;;;;17.32;70.48;99647.78;5072507;28;20219;-60
2022/10/26 01:58:45;;;;;;;15.80;5.07;;;;;;;17.26;70.08;99642.88;5072535;28;20195;-59
2022/10/26 02:01:27;;;;;;;19.40;5.67;;;;;;;17.27;70.01;99648.94;5064001;28;20207;-60
2022/10/26 02:04:06;;;;;;;14.97;5.73;;;;;;;17.25;69.52;99659.56;5072019;28;20200;-60
2022/10/26 02:06:41;;;;;;;12.53;5.80;;;;;;;17.22;68.83;99643.13;5071930;28;20230;-59
2022/10/26 02:09:16;;;;;;;14.17;5.30;;;;;;;17.21;68.75;99642.25;5071799;28;20223;-60
2022/10/26 02:11:46;;;;;;;15.60;5.20;;;;;;;17.00;68.76;99622.44;5071958;28;20203;-60
2022/10/26 02:14:22;;;;;;;15.90;5.40;;;;;;;17.08;68.15;99643.84;5071939;28;20683;-59
2022/10/26 02:16:57;;;;;;;13.10;5.03;;;;;;;17.01;68.51;99643.34;5071952;28;20200;-60
2022/10/26 02:19:33;;;;;;;14.07;4.73;;;;;;;16.98;68.35;99647.88;5071723;28;20191;-60
2022/10/26 02:22:06;;;;;;;13.33;4.90;;;;;;;16.89;68.22;99632.66;5071603;28;20208;-61
2022/10/26 02:24:35;;;;;;;18.23;5.00;;;;;;;16.97;67.94;99654.06;5071531;28;20672;-61
2022/10/26 02:27:06;;;;;;;12.20;4.60;;;;;;;16.94;67.78;99652.44;5071673;28;20687;-62
2022/10/26 02:29:35;;;;;;;17.30;5.30;;;;;;;16.95;67.92;99653.28;5071428;28;20226;-60
2022/10/26 02:32:05;;;;;;;14.03;5.33;;;;;;;17.00;67.91;99646.88;5071475;28;20196;-63
2022/10/26 02:34:34;;;;;;;20.03;6.30;;;;;;;17.04;68.21;99650.19;5071408;28;20218;-61
2022/10/26 02:37:04;;;;;;;18.13;5.90;;;;;;;17.10;68.22;99656.88;5071211;28;20202;-60
2022/10/26 02:39:34;;;;;;;14.10;6.47;;;;;;;17.08;68.82;99648.25;5071116;28;20247;-62
2022/10/26 02:42:04;;;;;;;16.80;6.50;;;;;;;17.10;68.89;99657.72;5070180;28;20204;-62
2022/10/26 02:44:36;;;;;;;17.63;6.17;;;;;;;17.16;68.94;99662.63;5071204;28;20241;-60
2022/10/26 02:47:04;;;;;;;18.37;6.77;;;;;;;17.21;68.55;99650.13;5071083;28;20204;-62
2022/10/26 02:49:32;;;;;;;15.70;5.93;;;;;;;17.25;68.23;99653.44;5070827;28;20273;-62
2022/10/26 02:52:02;;;;;;;14.07;5.97;;;;;;;17.25;67.96;99661.31;5071205;28;20743;-62
2022/10/26 02:54:35;;;;;;;18.60;6.53;;;;;;;17.33;67.74;99657.34;5070878;28;20203;-62
2022/10/26 02:57:08;;;;;;;11.70;5.30;;;;;;;17.29;67.92;99647.09;5071074;28;20192;-62
2022/10/26 02:59:38;;;;;;;21.50;6.07;;;;;;;17.41;67.50;99655.16;5071033;28;20196;-61
2022/10/26 03:02:07;;;;;;;12.07;5.30;;;;;;;17.53;66.65;99660.66;5070583;28;20221;-61
2022/10/26 03:04:35;;;;;;;15.33;5.27;;;;;;;17.59;66.67;99665.59;5072989;28;20198;-61
2022/10/26 03:07:02;;;;;;;17.07;5.90;;;;;;;17.54;66.86;99662.34;5074029;28;20200;-61
2022/10/26 03:09:29;;;;;;;23.90;5.83;;;;;;;17.57;66.92;99654.31;5088572;28;20211;-61
2022/10/26 03:11:56;;;;;;;18.17;5.33;;;;;;;17.63;66.23;99662.72;5091053;28;20563;-60
2022/10/26 03:14:23;;;;;;;18.80;5.50;;;;;;;17.63;66.16;99659.25;5080011;28;20196;-62
2022/10/26 03:16:50;;;;;;;11.40;6.07;;;;;;;17.68;66.13;99667.72;5071046;28;20310;-61
2022/10/26 03:19:18;;;;;;;13.83;5.47;;;;;;;17.70;66.45;99660.63;5070355;28;20206;-62
2022/10/26 03:21:45;;;;;;;24.17;6.80;;;;;;;17.66;66.91;99657.31;5076574;28;20192;-60
2022/10/26 03:24:12;;;;;;;12.90;6.17;;;;;;;17.69;66.65;99666.78;5078166;28;20195;-59
2022/10/26 03:26:39;;;;;;;9.73;5.47;;;;;;;17.64;66.51;99653.91;5078327;28;20196;-60
2022/10/26 03:29:07;;;;;;;19.23;5.77;;;;;;;17.65;66.80;99662.63;5082699;28;20219;-61
2022/10/26 03:31:34;;;;;;;19.13;5.77;;;;;;;17.66;66.21;99661.72;5079779;28;20191;-59
2022/10/26 03:34:01;;;;;;;16.53;5.40;;;;;;;17.61;65.81;99659.28;5077543;28;20816;-61
2022/10/26 03:36:30;;;;;;;14.63;5.53;;;;;;;17.56;66.10;99671.00;5082989;28;20195;-60
2022/10/26 03:38:57;;;;;;;13.03;5.50;;;;;;;17.51;66.13;99658.09;5090046;28;20755;-60
2022/10/26 03:41:23;;;;;;;11.73;5.27;;;;;;;17.54;65.54;99668.44;5090243;28;20666;-60
2022/10/26 03:43:50;;;;;;;20.93;5.70;;;;;;;17.58;65.18;99679.63;5090218;28;20222;-60
2022/10/26 03:46:17;;;;;;;23.73;6.03;;;;;;;17.57;65.40;99676.16;5090263;28;20210;-60
2022/10/26 03:48:44;;;;;;;17.80;6.40;;;;;;;17.55;65.60;99685.88;5090018;28;20223;-60
2022/10/26 03:51:11;;;;;;;15.90;5.67;;;;;;;17.55;66.42;99685.03;5090196;28;20195;-59
2022/10/26 03:53:39;;;;;;;14.97;5.30;;;;;;;17.54;65.80;99686.81;5090004;28;20227;-59
2022/10/26 03:56:07;;;;;;;18.40;5.63;;;;;;;17.50;66.12;99685.28;5090091;28;20590;-59
2022/10/26 03:58:34;;;;;;;18.10;5.77;;;;;;;17.48;65.85;99674.03;5078532;28;20215;-63
2022/10/26 04:01:01;;;;;;;21.80;6.40;;;;;;;17.63;66.28;99693.38;5076999;28;20234;-63
2022/10/26 04:03:27;;;;;;;12.47;5.03;;;;;;;17.65;66.62;99691.50;5080466;28;20220;-63
2022/10/26 04:05:54;;;;;;;19.23;6.13;;;;;;;17.61;67.20;99692.56;5086693;28;20219;-64
2022/10/26 04:08:21;;;;;;;18.93;5.70;;;;;;;17.56;67.39;99702.50;5076974;28;20227;-59
2022/10/26 04:10:49;;;;;;;13.00;5.77;;;;;;;17.54;66.76;99701.72;5081429;28;20238;-60
2022/10/26 04:13:16;;;;;;;15.47;6.33;;;;;;;17.50;67.84;99713.31;5084740;28;20323;-59
2022/10/26 04:15:43;;;;;;;15.23;5.40;;;;;;;17.44;68.49;99704.00;5080972;28;20219;-59
2022/10/26 04:18:11;;;;;;;19.57;6.10;;;;;;;17.40;68.91;99705.94;5088504;28;20286;-59
2022/10/26 04:20:41;;;;;;;12.97;5.60;;;;;;;17.42;69.15;99711.09;5089110;28;20194;-63
2022/10/26 04:23:11;;;;;;;19.00;6.23;;;;;;;17.37;69.39;99711.38;5089710;28;20229;-60
2022/10/26 04:25:38;;;;;;;22.27;6.75;;;;;;;17.33;69.91;99716.84;5087745;28;20519;-58
2022/10/26 04:28:08;;;;;;;18.90;6.23;;;;;;;17.31;69.94;99722.16;5089308;28;20675;-59
2022/10/26 04:30:36;;;;;;;19.47;5.50;;;;;;;17.27;69.32;99728.50;5089134;28;20284;-60
2022/10/26 04:33:03;;;;;;;14.57;5.87;;;;;;;17.27;69.40;99725.03;5088556;28;20200;-59
2022/10/26 04:35:30;;;;;;;23.90;7.40;;;;;;;17.23;69.94;99724.34;5089724;28;20799;-59
2022/10/26 04:37:59;;;;;;;15.23;5.97;;;;;;;17.22;69.34;99732.31;5088208;28;20195;-64
2022/10/26 04:40:26;;;;;;;20.50;6.30;;;;;;;17.17;68.77;99732.53;5069761;28;20626;-64
2022/10/26 04:42:53;;;;;;;16.27;5.93;;;;;;;17.12;69.07;99739.81;5069575;28;20192;-64
2022/10/26 04:45:21;;;;;;;15.13;6.27;;;;;;;17.09;68.96;99742.59;5072042;28;20199;-62
2022/10/26 04:47:58;;;;;;;17.13;6.10;;;;;;;17.05;69.18;99747.13;5078362;28;20188;-62
2022/10/26 04:50:26;;;;;;;19.33;5.77;;;;;;;16.98;69.46;99750.16;5083908;28;20572;-62
2022/10/26 04:52:53;;;;;;;12.47;5.33;;;;;;;16.93;69.44;99745.13;5089552;28;20256;-63
2022/10/26 04:55:20;;;;;;;17.87;5.87;;;;;;;16.84;68.83;99739.50;5089554;28;20195;-64
2022/10/26 04:57:47;;;;;;;17.03;6.37;;;;;;;16.88;68.91;99752.41;5089579;28;20733;-62
2022/10/26 05:00:14;;;;;;;14.03;6.53;;;;;;;16.86;69.38;99758.63;5089483;28;20195;-64
2022/10/26 05:02:42;;;;;;;18.53;6.13;;;;;;;16.88;68.57;99751.56;5089350;28;20209;-64
2022/10/26 05:05:09;;;;;;;20.63;6.00;;;;;;;16.88;69.01;99759.41;5090885;28;20206;-64
2022/10/26 05:07:36;;;;;;;11.57;5.10;;;;;;;16.96;68.06;99744.13;5093342;28;20592;-63
2022/10/26 05:10:04;;;;;;;14.73;5.63;;;;;;;16.99;68.18;99757.09;5093230;28;20218;-64
2022/10/26 05:12:31;;;;;;;13.17;5.23;;;;;;;16.95;67.98;99752.94;5093106;28;20202;-62
2022/10/26 05:14:58;;;;;;;17.07;6.10;;;;;;;17.00;68.10;99756.19;5093368;28;20678;-62
2022/10/26 05:17:25;;;;;;;16.13;5.57;;;;;;;17.06;67.92;99763.72;5092567;28;20202;-64
2022/10/26 05:19:56;;;;;;;15.37;6.13;;;;;;;17.14;67.71;99774.69;5093196;28;20217;-64
2022/10/26 05:22:24;;;;;;;15.33;5.80;;;;;;;17.21;67.75;99776.06;5093101;28;20642;-64
2022/10/26 05:24:50;;;;;;;16.63;5.73;;;;;;;17.37;66.33;99782.22;5092695;28;20199;-64
2022/10/26 05:27:18;;;;;;;18.17;5.87;;;;;;;17.46;66.09;99782.66;5092909;28;20206;-64
2022/10/26 05:29:45;;;;;;;19.73;6.03;;;;;;;17.49;66.27;99783.34;5079593;28;20623;-62
2022/10/26 05:32:12;;;;;;;17.17;5.97;;;;;;;17.55;66.14;99790.03;5071846;28;20222;-62
2022/10/26 05:34:39;;;;;;;22.83;7.00;;;;;;;17.56;65.74;99775.97;5072312;28;20230;-62
2022/10/26 05:37:07;;;;;;;17.63;5.83;;;;;;;18.05;64.58;99797.84;5075856;28;20227;-62
2022/10/26 05:39:34;;;;;;;16.80;5.93;;;;;;;19.06;61.55;99795.59;5090816;28;20227;-62
2022/10/26 05:42:01;;;;;;;17.35;6.13;;;;;;;20.49;56.56;99805.16;5091335;28;20205;-61
2022/10/26 05:44:28;;;;;;;17.85;6.75;;;;;;;22.07;50.92;99807.53;5092583;28;20311;-64
2022/10/26 05:46:55;;;;;;;20.42;6.25;;;;;;;23.51;46.90;99801.19;5092560;28;20195;-63
2022/10/26 05:49:21;;;;;;;11.43;5.60;;;;;;;24.85;42.67;99820.38;5092611;28;20620;-62
2022/10/26 05:51:48;;;;;;;18.35;5.95;;;;;;;26.13;40.18;99824.53;5092565;28;20195;-63
2022/10/26 05:54:17;;;;;;;20.17;6.38;;;;;;;27.17;37.31;99824.84;5092458;28;20199;-63
2022/10/26 05:56:44;;;;;;;14.27;5.53;;;;;;;28.20;35.94;99832.81;5092372;28;20609;-65
2022/10/26 05:59:13;;;;;;;15.48;5.45;;;;;;;29.40;34.08;99836.00;5092046;28;25064;-65
2022/10/26 06:01:55;;;;;;;15.30;5.65;;;;;;;30.54;32.07;99840.94;5092204;28;20516;-65
2022/10/26 06:04:37;;;;;;;19.42;5.80;;;;;;;31.31;30.38;99838.84;5092372;28;20197;-65
2022/10/26 06:07:10;;;;;;;21.27;6.07;;;;;;;32.01;29.69;99847.94;5085531;28;20187;-65
2022/10/26 06:09:40;;;;;;;16.85;5.50;;;;;;;32.53;28.83;99850.03;5081761;28;20255;-63
2022/10/26 06:12:09;;;;;;;13.55;5.85;;;;;;;32.86;28.57;99852.53;5079796;28;20605;-63
2022/10/26 06:14:36;;;;;;;18.27;6.32;;;;;;;32.93;28.10;99859.75;5081288;28;20358;-63
2022/10/26 06:17:16;;;;;;;20.13;6.50;;;;;;;32.37;28.33;99859.06;5080946;28;20196;-65
2022/10/26 06:19:58;;;;;;;24.75;7.00;;;;;;;31.91;28.82;99854.50;5074117;28;20218;-64
2022/10/26 06:22:39;;;;;;;15.75;6.22;;;;;;;31.25;29.76;99855.63;5071905;28;20602;-64
2022/10/26 06:25:16;;;;;;;18.23;6.88;;;;;;;30.92;30.67;99862.78;5071705;28;20196;-65
2022/10/26 06:27:52;;;;;;;18.88;6.30;;;;;;;29.67;31.95;99856.41;5071424;28;20196;-65
2022/10/26 06:30:22;;;;;;;13.45;6.03;;;;;;;28.39;33.87;99858.56;5071790;28;20234;-64
2022/10/26 06:32:52;;;;;;;17.63;6.47;;;;;;;27.55;35.75;99853.25;5071294;28;20228;-65
2022/10/26 06:35:30;;;;;;;21.75;6.63;;;;;;;27.03;36.41;99855.41;5071498;28;20213;-65
2022/10/26 06:38:02;;;;;;;15.63;7.10;;;;;;;26.46;37.42;99861.50;5071335;28;20216;-65
2022/10/26 06:40:32;;;;;;;12.68;6.18;;;;;;;26.12;38.69;99855.63;5071325;28;20204;-65
2022/10/26 06:43:00;;;;;;;15.40;5.68;;;;;;;25.64;39.41;99864.22;5071169;28;20206;-65
2022/10/26 06:45:27;;;;;;;19.33;6.70;;;;;;;25.25;40.37;99860.44;5071403;28;20199;-64
2022/10/26 06:48:02;;;;;;;23.50;6.72;;;;;;;24.91;41.65;99866.84;5071359;28;20162;-65
2022/10/26 06:50:37;;;;;;;17.58;5.85;;;;;;;24.49;42.53;99865.91;5086020;28;20222;-65
2022/10/26 06:53:21;;;;;;;15.90;5.88;;;;;;;24.21;43.17;99861.91;5091328;28;20256;-64
2022/10/26 06:55:51;;;;;;;15.43;5.93;;;;;;;24.03;43.60;99858.09;5091443;28;20282;-65
2022/10/26 06:58:20;;;;;;;18.20;5.72;;;;;;;23.87;44.06;99856.63;5091218;28;20227;-65
2022/10/26 07:00:48;;;;;;;14.15;5.63;;;;;;;23.64;44.94;99868.16;5091030;28;20220;-63
2022/10/26 07:03:15;;;;;;;12.20;5.35;;;;;;;23.47;45.04;99860.66;5090980;28;20199;-63
2022/10/26 07:05:43;;;;;;;10.65;5.10;;;;;;;23.20;45.99;99868.03;5090910;28;20198;-62
2022/10/26 07:08:10;;;;;;;15.73;4.95;;;;;;;23.05;46.18;99865.56;5090830;28;20210;-63
2022/10/26 07:10:38;;;;;;;10.77;4.60;;;;;;;22.97;46.30;99862.66;5091125;28;20705;-62
2022/10/26 07:13:07;;;;;;;17.70;5.30;;;;;;;22.99;46.54;99871.34;5090857;28;20207;-65
2022/10/26 07:15:34;;;;;;;13.32;5.15;;;;;;;22.96;46.73;99873.38;5090702;28;20643;-63
2022/10/26 07:18:02;;;;;;;11.98;5.50;;;;;;;23.00;46.74;99867.75;5090677;28;20196;-63
2022/10/26 07:20:29;;;;;;;11.82;4.82;;;;;;;22.86;47.14;99861.75;5090733;28;20589;-62
2022/10/26 07:22:56;;;;;;;14.25;5.43;;;;;;;22.88;47.26;99876.59;5090861;28;20731;-63
2022/10/26 07:25:25;;;;;;;12.32;4.65;;;;;;;22.74;47.86;99866.97;5090634;28;20196;-62
2022/10/26 07:27:56;;;;;;;14.60;5.55;;;;;;;22.71;47.98;99866.34;5088473;28;20195;-62
2022/10/26 07:30:25;;;;;;;17.90;5.65;;;;;;;22.58;48.12;99865.53;5089967;28;20249;-64
2022/10/26 07:32:59;;;;;;;20.13;7.30;;;;;;;22.72;47.95;99868.88;5089552;28;20219;-64
2022/10/26 07:35:26;;;;;;;17.90;5.97;;;;;;;22.80;47.77;99871.84;5090480;28;20584;-64
2022/10/26 07:37:57;;;;;;;10.90;4.88;;;;;;;22.78;47.74;99872.94;5090202;28;20761;-63
2022/10/26 07:40:24;;;;;;;13.75;5.43;;;;;;;22.78;47.76;99865.84;5090182;28;20226;-64
2022/10/26 07:42:51;;;;;;;13.10;5.63;;;;;;;22.79;47.69;99864.03;5090256;28;20600;-63
2022/10/26 07:45:19;;;;;;;19.02;6.22;;;;;;;22.75;48.07;99859.88;5087436;28;20199;-64
2022/10/26 07:47:47;;;;;;;14.98;6.47;;;;;;;22.61;48.81;99866.19;5077239;28;20278;-63
2022/10/26 07:50:14;;;;;;;7.95;4.93;;;;;;;22.54;48.95;99864.94;5070399;28;20794;-64
2022/10/26 07:52:41;;;;;;;13.50;5.20;;;;;;;22.53;49.30;99859.75;5072861;28;20199;-62
2022/10/26 07:55:09;;;;;;;13.82;5.20;;;;;;;22.54;49.30;99859.66;5070560;28;20239;-62
2022/10/26 07:57:36;;;;;;;14.43;5.30;;;;;;;22.33;50.10;99856.75;5070314;28;20203;-62
2022/10/26 08:00:04;;;;;;;16.85;5.70;;;;;;;22.29;50.38;99857.94;5070277;28;20202;-62
2022/10/26 08:02:31;;;;;;;14.70;5.25;;;;;;;22.23;50.39;99863.66;5070560;28;20199;-63
2022/10/26 08:05:00;;;;;;;19.80;5.97;;;;;;;22.18;50.56;99852.56;5077547;28;20183;-62
2022/10/26 08:07:27;;;;;;;16.70;6.07;;;;;;;22.09;51.00;99854.06;5070288;28;20671;-62
2022/10/26 08:09:54;;;;;;;13.80;5.70;;;;;;;22.03;51.11;99849.19;5070365;28;20230;-62
2022/10/26 08:12:21;;;;;;;12.95;4.95;;;;;;;22.13;51.01;99854.66;5070375;28;20723;-62
2022/10/26 08:14:48;;;;;;;13.95;4.78;;;;;;;22.16;50.88;99859.75;5070104;28;20202;-63
2022/10/26 08:17:15;;;;;;;16.95;5.05;;;;;;;22.21;50.58;99862.94;5081618;28;20220;-62
2022/10/26 08:19:42;;;;;;;17.48;4.82;;;;;;;22.17;50.53;99856.16;5090794;28;20696;-64
2022/10/26 08:22:10;;;;;;;10.73;4.68;;;;;;;22.13;50.26;99857.31;5090223;28;20199;-64
2022/10/26 08:24:37;;;;;;;9.82;5.45;;;;;;;22.18;50.13;99857.00;5090224;28;20196;-64
2022/10/26 08:27:04;;;;;;;11.38;5.28;;;;;;;21.99;50.46;99852.19;5090191;28;20674;-64
2022/10/26 08:29:31;;;;;;;7.97;4.40;;;;;;;22.06;50.15;99859.56;5090248;28;20376;-64
2022/10/26 08:31:58;;;;;;;6.10;3.92;;;;;;;22.14;50.19;99856.38;5090439;28;20642;-64
2022/10/26 08:34:24;;;;;;;9.52;3.40;;;;;;;22.25;49.85;99852.94;5090244;28;20201;-64
2022/10/26 08:36:51;;;;;;;8.85;3.92;;;;;;;22.28;49.63;99861.53;5090393;28;20585;-64
2022/10/26 08:39:20;;;;;;;11.20;3.97;;;;;;;22.30;49.41;99851.69;5090371;28;20322;-65
2022/10/26 08:41:52;;;;;;;17.98;4.85;;;;;;;22.37;49.09;99850.28;5094139;28;20199;-64
2022/10/26 08:44:26;;;;;;;12.25;4.00;;;;;;;22.41;48.97;99856.19;5094429;28;20233;-64
2022/10/26 08:46:58;;;;;;;11.05;4.53;;;;;;;22.40;48.78;99852.72;5085878;28;20224;-64
2022/10/26 08:49:29;;;;;;;11.73;4.22;;;;;;;22.46;48.40;99860.19;5073586;28;20300;-64
2022/10/26 08:52:01;;;;;;;13.27;3.72;;;;;;;22.46;47.73;99854.06;5073734;28;20730;-62
2022/10/26 08:54:38;;;;;;;8.88;4.72;;;;;;;22.42;47.88;99856.09;5083819;28;20230;-63
2022/10/26 08:57:15;;;;;;;7.72;4.47;;;;;;;22.51;47.87;99859.03;5093453;28;20233;-61
2022/10/26 08:59:49;;;;;;;6.70;4.55;;;;;;;22.56;47.38;99856.91;5093240;28;20263;-63
2022/10/26 09:02:17;;;;;;;8.77;3.65;;;;;;;22.56;47.16;99857.75;5092951;28;20260;-63
2022/10/26 09:04:45;;;;;;;6.63;3.95;;;;;;;22.55;47.06;99847.28;5093947;28;20191;-61
2022/10/26 09:07:29;;;;;;;6.57;3.80;;;;;;;22.55;47.01;99855.22;5094130;28;20210;-62
2022/10/26 09:10:08;;;;;;;9.25;3.97;;;;;;;22.57;46.94;99846.22;5093841;28;20712;-61
2022/10/26 09:12:44;;;;;;;5.00;3.42;;;;;;;22.60;46.25;99850.41;5093810;28;20209;-62
2022/10/26 09:15:23;;;;;;;4.53;3.03;;;;;;;22.59;46.56;99835.50;5093594;28;20201;-62
2022/10/26 09:18:02;;;;;;;7.20;3.53;;;;;;;22.64;46.69;99847.44;5093808;28;20217;-64
2022/10/26 09:21:05;;;;;;;7.63;3.58;;;;;;;22.66;46.57;99845.53;5086977;28;20194;-64
2022/10/26 09:23:49;;;;;;;6.68;3.22;;;;;;;22.72;45.93;99845.06;5082062;28;20589;-64
2022/10/26 09:26:28;;;;;;;8.73;3.60;;;;;;;22.68;45.83;99833.03;5082648;28;20194;-62
2022/10/26 09:28:58;;;;;;;4.03;2.60;;;;;;;22.79;45.28;99840.22;5082562;28;20593;-62
2022/10/26 09:31:25;;;;;;;4.60;2.90;;;;;;;22.75;44.99;99822.84;5083686;28;20226;-62
2022/10/26 09:33:55;;;;;;;19.92;3.53;;;;;;;22.95;45.51;99839.91;5080872;28;20671;-62
2022/10/26 09:36:22;;;;;;;4.57;3.10;;;;;;;23.02;44.65;99838.50;5082667;28;20191;-61
2022/10/26 09:38:56;;;;;;;4.40;2.88;;;;;;;23.00;44.44;99845.72;5082650;28;20219;-63
2022/10/26 09:41:32;;;;;;;15.00;3.13;;;;;;;23.08;44.57;99843.31;5080301;28;20575;-62
2022/10/26 09:44:06;;;;;;;8.18;2.85;;;;;;;23.12;44.18;99835.03;5072884;28;20200;-62
2022/10/26 09:46:49;;;;;;;5.82;3.60;;;;;;;23.20;44.30;99837.09;5072164;28;20218;-62
2022/10/26 09:49:21;;;;;;;6.68;3.90;;;;;;;23.22;44.17;99829.03;5072424;28;20200;-62
2022/10/26 09:51:49;;;;;;;4.70;3.03;;;;;;;23.18;44.15;99813.38;5071530;28;20226;-61
2022/10/26 09:54:18;;;;;;;6.18;3.20;;;;;;;23.29;43.44;99828.44;5072301;28;20279;-62
2022/10/26 09:56:51;;;;;;;5.75;3.38;;;;;;;23.34;46.65;99833.41;5072143;28;20207;-63
2022/10/26 09:59:21;;;;;;;9.80;3.22;;;;;;;23.37;45.06;99831.34;5072047;28;20196;-63
2022/10/26 10:01:48;;;;;;;9.90;3.22;;;;;;;23.46;43.00;99821.88;5072021;28;20196;-64
2022/10/26 10:04:21;;;;;;;5.38;2.67;;;;;;;23.42;43.04;99820.41;5071531;28;20210;-64
2022/10/26 10:06:49;;;;;;;6.35;3.05;;;;;;;23.49;42.80;99816.31;5071442;28;20202;-65
2022/10/26 10:09:19;;;;;;;7.70;2.70;;;;;;;23.48;44.84;99812.81;5071295;28;20196;-64
2022/10/26 10:11:55;;;;;;;4.78;2.80;;;;;;;23.47;42.86;99811.16;5078635;28;20649;-64
2022/10/26 10:14:24;;;;;;;6.88;3.20;;;;;;;23.32;42.88;99772.59;5092292;28;20718;-64
2022/10/26 10:16:56;;;;;;;5.35;2.65;;;;;;;23.50;43.06;99815.38;5092255;28;20191;-65
2022/10/26 10:19:25;;;;;;;3.75;3.03;;;;;;;23.49;42.88;99801.25;5091940;28;20202;-63
2022/10/26 10:21:56;;;;;;;3.15;2.85;;;;;;;23.52;42.04;99802.88;5092263;28;20195;-63
2022/10/26 10:24:29;;;;;;;5.38;3.53;;;;;;;23.55;42.30;99800.00;5092089;28;20627;-63
2022/10/26 10:27:00;;;;;;;8.82;5.85;;;;;;;23.61;42.50;99793.34;5091762;28;20290;-62
2022/10/26 10:29:27;;;;;;;5.65;5.25;;;;;;;23.59;42.63;99796.13;5092131;28;20195;-61
2022/10/26 10:31:59;;;;;;;6.00;5.28;;;;;;;23.45;42.73;99767.19;5091816;28;20246;-62
2022/10/26 10:34:26;;;;;;;8.85;3.42;;;;;;;23.61;42.08;99788.91;5091626;28;20195;-60
2022/10/26 10:36:54;;;;;;;4.32;3.03;;;;;;;23.60;42.20;99781.91;5091687;28;20282;-63
2022/10/26 10:39:34;;;;;;;7.45;2.50;;;;;;;23.60;42.20;99787.22;5091459;28;20235;-63
2022/10/26 10:42:03;;;;;;;9.18;2.70;;;;;;;23.64;41.63;99788.66;5091548;28;20550;-63
2022/10/26 10:44:33;;;;;;;6.15;2.90;;;;;;;23.68;41.77;99779.53;5091446;28;20667;-63
2022/10/26 10:47:02;;;;;;;6.80;2.72;;;;;;;23.75;41.53;99770.13;5091591;28;20656;-63
2022/10/26 10:49:31;;;;;;;8.15;2.90;;;;;;;23.80;41.77;99785.66;5091310;28;20199;-63
2022/10/26 10:51:58;;;;;;;5.07;2.90;;;;;;;23.83;41.50;99777.44;5091404;28;20242;-63
2022/10/26 10:54:29;;;;;;;3.53;2.92;;;;;;;23.83;41.33;99770.34;5091496;28;20595;-62
2022/10/26 10:57:03;;;;;;;8.23;2.97;;;;;;;23.86;41.29;99764.78;5091220;28;20202;-63
2022/10/26 10:59:49;;;;;;;5.75;2.63;;;;;;;23.87;41.40;99755.88;5091106;28;20205;-66
2022/10/26 11:02:33;;;;;;;8.05;3.55;;;;;;;23.89;41.48;99750.47;5083331;28;20195;-65
2022/10/26 11:05:23;;;;;;;7.97;3.17;;;;;;;23.86;41.64;99754.19;5071083;28;20357;-65
2022/10/26 11:07:54;;;;;;;3.63;3.30;;;;;;;23.89;41.73;99745.16;5070881;28;20229;-65
2022/10/26 11:10:26;;;;;;;3.05;2.22;;;;;;;23.91;41.34;99737.09;5070936;28;20605;-65
2022/10/26 11:12:57;;;;;;;5.68;2.80;;;;;;;23.99;41.22;99747.91;5070874;28;20724;-68
2022/10/26 11:15:28;;;;;;;4.43;2.80;;;;;;;24.00;40.90;99752.25;5070687;28;20203;-66
2022/10/26 11:18:06;;;;;;;2.47;2.25;;;;;;;23.98;40.81;99743.56;5070453;28;20200;-66
2022/10/26 11:20:37;;;;;;;8.80;3.03;;;;;;;24.03;40.89;99744.91;5070455;28;20196;-67
2022/10/26 11:23:09;;;;;;;3.72;2.83;;;;;;;24.02;41.03;99747.66;5070483;28;20202;-66
2022/10/26 11:25:44;;;;;;;5.07;2.38;;;;;;;24.05;40.61;99744.75;5070336;28;20192;-66
2022/10/26 11:28:19;;;;;;;5.70;2.33;;;;;;;24.10;40.06;99743.44;5070458;28;20689;-66
2022/10/26 11:30:53;;;;;;;3.58;2.35;;;;;;;24.14;40.10;99739.56;5070431;28;20294;-65
2022/10/26 11:33:27;;;;;;;7.18;2.80;;;;;;;24.27;40.06;99735.94;5070428;28;20200;-65
2022/10/26 11:36:00;;;;;;;4.75;2.42;;;;;;;24.31;39.58;99734.72;5070295;28;20287;-65
2022/10/26 11:38:35;;;;;;;3.20;2.20;;;;;;;24.27;39.52;99733.31;5070153;28;20347;-65
2022/10/26 11:41:08;;;;;;;4.68;2.30;;;;;;;24.26;39.42;99739.56;5070091;28;20196;-65
2022/10/26 11:43:40;;;;;;;7.03;2.13;;;;;;;24.32;39.53;99741.72;5070272;28;20622;-65